createdAt,value
2019-01-14T00:01:23.455Z,76.80
2019-01-14T00:06:19.739Z,76.80
2019-01-14T00:11:14.983Z,76.80
2019-01-14T00:13:43.449Z,76.00
2019-01-14T00:16:11.371Z,76.00
2019-01-14T00:18:39.324Z,76.40
2019-01-14T00:21:07.592Z,76.20
2019-01-14T00:23:35.558Z,76.30
2019-01-14T00:26:04.072Z,76.10
2019-01-14T00:28:32.369Z,77.50
2019-01-14T00:33:28.608Z,76.30
2019-01-14T00:35:56.928Z,76.40
2019-01-14T00:40:53.663Z,77.40
2019-01-14T00:43:22.200Z,77.80
2019-01-14T00:45:50.501Z,78.20
2019-01-14T00:48:18.800Z,78.90
2019-01-14T00:53:14.958Z,80.40
2019-01-14T00:58:11.116Z,79.90
2019-01-14T01:00:39.453Z,79.80
2019-01-14T01:03:07.410Z,79.80
2019-01-14T01:05:35.336Z,79.80
2019-01-14T01:10:30.265Z,80.90
2019-01-14T01:15:25.700Z,79.70
2019-01-14T01:17:53.727Z,80.20
2019-01-14T01:20:21.856Z,79.80
2019-01-14T01:25:18.299Z,79.40
2019-01-14T01:27:46.709Z,79.80
2019-01-14T01:30:16.293Z,78.80
2019-01-14T01:32:44.364Z,79.00
2019-01-14T01:35:13.212Z,79.00
2019-01-14T01:37:41.503Z,78.70
2019-01-14T01:40:12.769Z,79.30
2019-01-14T01:42:41.030Z,79.70
2019-01-14T01:45:09.236Z,80.50
2019-01-14T01:47:37.568Z,81.70
2019-01-14T01:50:06.002Z,82.20
2019-01-14T01:55:01.832Z,82.30
2019-01-14T01:59:58.443Z,83.20
2019-01-14T02:02:25.990Z,83.60
2019-01-14T02:04:53.656Z,83.10
2019-01-14T02:07:21.565Z,84.00
2019-01-14T02:09:49.947Z,84.20
2019-01-14T02:12:17.569Z,83.60
2019-01-14T02:14:45.511Z,83.10
2019-01-14T02:17:13.780Z,83.30
2019-01-14T02:22:09.220Z,83.60
2019-01-14T02:24:37.850Z,83.80
2019-01-14T02:29:33.572Z,83.10
2019-01-14T02:32:01.207Z,83.50
2019-01-14T02:34:29.509Z,83.10
2019-01-14T02:39:25.036Z,81.40
2019-01-14T02:41:53.434Z,81.70
2019-01-14T02:44:22.108Z,81.90
2019-01-14T02:46:50.458Z,80.30
2019-01-14T02:49:18.480Z,81.00
2019-01-14T02:51:46.514Z,80.90
2019-01-14T02:54:14.352Z,81.10
2019-01-14T02:56:42.299Z,81.30
2019-01-14T02:59:09.933Z,82.20
2019-01-14T03:06:34.537Z,81.30
2019-01-14T03:11:31.303Z,80.30
2019-01-14T03:13:59.911Z,80.80
2019-01-14T03:16:27.562Z,80.80
2019-01-14T03:18:56.138Z,81.10
2019-01-14T03:21:24.327Z,80.50
2019-01-14T03:26:20.969Z,81.90
2019-01-14T03:28:51.047Z,80.50
2019-01-14T03:31:21.104Z,81.00
2019-01-14T03:33:49.175Z,80.80
2019-01-14T03:36:17.230Z,80.00
2019-01-14T03:38:45.155Z,80.50
2019-01-14T03:41:12.783Z,81.40
2019-01-14T03:43:41.107Z,82.00
2019-01-14T03:46:08.999Z,81.70
2019-01-14T03:48:37.084Z,81.40
2019-01-14T03:51:05.472Z,81.00
2019-01-14T03:53:32.987Z,81.30
2019-01-14T04:00:57.119Z,81.90
2019-01-14T04:03:24.762Z,81.10
2019-01-14T04:08:20.927Z,79.90
2019-01-14T04:10:49.114Z,80.90
2019-01-14T04:13:17.064Z,79.60
2019-01-14T04:18:13.916Z,78.90
2019-01-14T04:20:42.601Z,79.60
2019-01-14T04:23:10.903Z,79.60
2019-01-14T04:25:39.243Z,79.30
2019-01-14T04:28:06.876Z,79.50
2019-01-14T04:30:34.813Z,79.50
2019-01-14T04:33:02.422Z,80.00
2019-01-14T04:35:30.417Z,79.50
2019-01-14T04:37:58.678Z,79.50
2019-01-14T04:40:26.699Z,79.60
2019-01-14T04:42:54.727Z,79.60
2019-01-14T04:45:23.277Z,79.60
2019-01-14T04:47:51.885Z,79.60
2019-01-14T04:50:21.119Z,79.80
2019-01-14T04:55:17.363Z,80.50
2019-01-14T04:57:45.375Z,80.00
2019-01-14T05:00:19.536Z,80.70
2019-01-14T05:02:47.903Z,81.30
2019-01-14T05:05:15.666Z,81.60
2019-01-14T05:07:43.925Z,82.00
2019-01-14T05:12:39.333Z,83.20
2019-01-14T05:15:09.065Z,83.40
2019-01-14T05:20:07.157Z,84.10
2019-01-14T05:22:35.790Z,84.20
2019-01-14T05:25:04.155Z,84.70
2019-01-14T05:32:28.655Z,85.20
2019-01-14T05:34:57.432Z,84.70
2019-01-14T05:37:25.746Z,85.10
2019-01-14T05:39:53.777Z,84.80
2019-01-14T05:42:22.438Z,84.50
2019-01-14T05:49:47.503Z,84.50
2019-01-14T05:52:15.151Z,84.40
2019-01-14T05:54:43.448Z,84.30
2019-01-14T05:57:12.136Z,83.00
2019-01-14T06:04:35.878Z,83.10
2019-01-14T06:07:03.558Z,82.80
2019-01-14T06:09:31.561Z,83.00
2019-01-14T06:11:59.962Z,82.10
2019-01-14T06:19:24.696Z,81.50
2019-01-14T06:21:52.721Z,81.30
2019-01-14T06:24:20.372Z,81.90
2019-01-14T06:26:48.659Z,82.50
2019-01-14T06:31:44.663Z,83.00
2019-01-14T06:34:12.666Z,83.30
2019-01-14T06:36:40.426Z,83.40
2019-01-14T06:39:09.903Z,83.10
2019-01-14T06:41:37.876Z,82.80
2019-01-14T06:44:05.621Z,83.10
2019-01-14T06:46:33.938Z,83.50
2019-01-14T06:49:03.845Z,83.20
2019-01-14T06:51:31.779Z,83.50
2019-01-14T06:54:00.426Z,83.60
2019-01-14T06:56:28.422Z,84.20
2019-01-14T06:58:55.689Z,84.60
2019-01-14T07:01:23.360Z,84.00
2019-01-14T07:06:19.357Z,85.00
2019-01-14T07:08:47.659Z,85.00
2019-01-14T07:11:15.823Z,84.60
2019-01-14T07:13:43.989Z,85.00
2019-01-14T07:16:11.648Z,84.00
2019-01-14T07:18:39.700Z,84.10
2019-01-14T07:23:36.309Z,84.00
2019-01-14T07:26:04.339Z,84.70
2019-01-14T07:31:00.688Z,83.20
2019-01-14T07:33:29.329Z,83.40
2019-01-14T07:38:25.550Z,83.70
2019-01-14T07:40:53.474Z,83.70
2019-01-14T07:43:21.831Z,83.20
2019-01-14T07:48:18.179Z,83.60
2019-01-14T07:50:46.176Z,83.20
2019-01-14T07:53:14.474Z,83.00
2019-01-14T07:55:42.395Z,82.60
2019-01-14T07:58:10.133Z,83.00
2019-01-14T08:00:38.108Z,83.10
2019-01-14T08:03:06.443Z,83.50
2019-01-14T08:05:34.353Z,83.60
2019-01-14T08:10:30.410Z,82.60
2019-01-14T08:12:58.150Z,83.60
2019-01-14T08:15:26.125Z,82.50
2019-01-14T08:17:54.121Z,82.40
2019-01-14T08:20:22.486Z,81.60
2019-01-14T08:25:18.511Z,82.10
2019-01-14T08:27:47.206Z,81.60
2019-01-14T08:35:15.903Z,82.60
2019-01-14T08:37:43.691Z,82.40
2019-01-14T08:40:12.407Z,82.80
2019-01-14T08:42:40.753Z,82.80
2019-01-14T08:45:10.086Z,82.80
2019-01-14T08:47:38.039Z,83.00
2019-01-14T08:50:09.614Z,83.50
2019-01-14T08:52:37.679Z,83.40
2019-01-14T08:55:06.147Z,83.50
2019-01-14T08:57:35.124Z,82.20
2019-01-14T09:00:03.936Z,82.20
2019-01-14T09:02:31.880Z,82.30
2019-01-14T09:07:27.836Z,83.10
2019-01-14T09:12:23.352Z,83.60
2019-01-14T09:14:51.643Z,83.60
2019-01-14T09:17:19.251Z,83.50
2019-01-14T09:22:15.963Z,83.10
2019-01-14T09:24:44.551Z,83.30
2019-01-14T09:27:13.082Z,82.70
2019-01-14T09:29:40.689Z,80.10
2019-01-14T09:37:04.717Z,80.00
2019-01-14T09:42:01.651Z,81.80
2019-01-14T09:44:30.493Z,79.90
2019-01-14T09:47:02.386Z,79.60
2019-01-14T09:49:31.537Z,78.00
2019-01-14T09:54:27.615Z,79.40
2019-01-14T09:56:55.548Z,79.20
2019-01-14T09:59:23.098Z,79.60
2019-01-14T10:04:18.773Z,79.30
2019-01-14T10:09:15.062Z,78.00
2019-01-14T10:11:43.746Z,79.70
2019-01-14T10:16:40.224Z,78.50
2019-01-14T10:19:08.679Z,77.80
2019-01-14T10:24:05.012Z,77.90
2019-01-14T10:29:01.571Z,78.10
2019-01-14T10:31:29.767Z,78.30
2019-01-14T10:33:58.065Z,77.90
2019-01-14T10:38:55.022Z,77.90
2019-01-14T10:41:23.292Z,76.90
2019-01-14T10:43:51.616Z,76.90
2019-01-14T10:46:19.863Z,76.60
2019-01-14T10:48:47.733Z,75.00
2019-01-14T10:51:16.122Z,74.50
2019-01-14T10:53:44.480Z,73.50
2019-01-14T10:58:41.062Z,74.80
2019-01-14T11:01:08.950Z,74.60
2019-01-14T11:03:39.369Z,73.90
2019-01-14T11:08:34.671Z,74.70
2019-01-14T11:11:02.570Z,72.90
2019-01-14T11:13:30.483Z,73.20
2019-01-14T11:15:58.179Z,74.10
2019-01-14T11:18:26.014Z,72.40
2019-01-14T11:20:54.018Z,70.20
2019-01-14T11:23:21.579Z,63.60
2019-01-14T11:25:49.859Z,61.70
2019-01-14T11:28:17.919Z,63.70
2019-01-14T11:35:41.713Z,51.70
2019-01-14T11:38:42.384Z,51.90
2019-01-14T11:43:37.930Z,42.70
2019-01-14T11:46:06.551Z,39.50
2019-01-14T11:48:34.579Z,36.70
2019-01-14T11:51:02.488Z,36.60
2019-01-14T11:53:30.771Z,36.60
2019-01-14T11:58:26.605Z,35.10
2019-01-14T12:00:54.526Z,35.40
2019-01-14T12:03:22.561Z,33.80
2019-01-14T12:05:51.024Z,32.30
2019-01-14T12:08:20.987Z,34.10
2019-01-14T12:10:48.471Z,35.80
2019-01-14T12:13:16.466Z,33.20
2019-01-14T12:15:44.118Z,33.40
2019-01-14T12:18:12.083Z,35.50
2019-01-14T12:20:39.643Z,36.00
2019-01-14T12:25:35.475Z,36.20
2019-01-14T12:30:34.167Z,36.10
2019-01-14T12:35:29.865Z,38.30
2019-01-14T12:37:57.230Z,38.30
2019-01-14T12:42:53.304Z,39.60
2019-01-14T12:45:22.120Z,41.40
2019-01-14T12:47:51.020Z,42.20
2019-01-14T12:52:46.779Z,43.90
2019-01-14T12:55:16.120Z,46.50
2019-01-14T12:57:44.214Z,46.70
2019-01-14T13:00:17.642Z,48.20
2019-01-14T13:05:14.307Z,46.90
2019-01-14T13:10:10.317Z,50.00
2019-01-14T13:12:38.638Z,50.20
2019-01-14T13:15:10.484Z,50.20
2019-01-14T13:20:07.236Z,43.30
2019-01-14T13:27:31.104Z,43.60
2019-01-14T13:29:58.823Z,43.90
2019-01-14T13:32:26.199Z,43.50
2019-01-14T13:34:54.923Z,43.20
2019-01-14T13:37:22.932Z,46.90
2019-01-14T13:39:52.578Z,49.80
2019-01-14T13:44:48.413Z,53.00
2019-01-14T13:47:16.738Z,56.10
2019-01-14T13:49:45.762Z,57.10
2019-01-14T13:52:13.804Z,57.20
2019-01-14T13:54:41.531Z,57.00
2019-01-14T13:57:09.752Z,56.90
2019-01-14T13:59:43.362Z,57.60
2019-01-14T14:02:13.318Z,55.70
2019-01-14T14:04:41.673Z,56.90
2019-01-14T14:07:09.627Z,57.00
2019-01-14T14:12:09.326Z,61.50
2019-01-14T14:19:40.453Z,53.30
2019-01-14T14:22:11.790Z,55.40
2019-01-14T14:24:41.312Z,56.70
2019-01-14T14:27:13.398Z,56.40
2019-01-14T14:29:41.517Z,56.50
2019-01-14T14:32:12.822Z,57.40
2019-01-14T14:34:43.191Z,57.80
2019-01-14T14:37:18.428Z,58.50
2019-01-14T14:39:49.464Z,60.20
2019-01-14T14:42:18.975Z,58.90
2019-01-14T14:44:48.423Z,58.90
2019-01-14T14:47:16.988Z,58.40
2019-01-14T14:49:44.260Z,59.30
2019-01-14T14:52:13.424Z,60.00
2019-01-14T14:54:45.451Z,59.80
2019-01-14T14:57:13.451Z,60.50
2019-01-14T14:59:44.075Z,59.80
2019-01-14T15:02:14.370Z,59.80
2019-01-14T15:09:48.004Z,59.50
2019-01-14T15:14:47.134Z,59.50
2019-01-14T15:19:45.526Z,60.20
2019-01-14T15:22:18.271Z,59.70
2019-01-14T15:24:49.533Z,60.20
2019-01-14T15:27:19.851Z,59.90
2019-01-14T15:29:51.678Z,60.50
2019-01-14T15:32:21.219Z,60.00
2019-01-14T15:34:50.254Z,64.30
2019-01-14T15:37:18.784Z,66.10
2019-01-14T15:39:48.765Z,64.30
2019-01-14T15:42:16.979Z,63.10
2019-01-14T15:47:14.145Z,61.30
2019-01-14T15:52:25.040Z,60.90
2019-01-14T15:54:53.391Z,58.90
2019-01-14T15:57:23.466Z,57.80
2019-01-14T15:59:51.500Z,58.20
2019-01-14T16:02:23.813Z,58.20
2019-01-14T16:10:10.383Z,59.30
2019-01-14T16:12:36.468Z,59.20
2019-01-14T16:15:15.789Z,61.10
2019-01-14T16:20:16.630Z,60.00
2019-01-14T16:22:45.589Z,62.00
2019-01-14T16:25:24.162Z,62.30
2019-01-14T16:37:56.380Z,61.50
2019-01-14T16:40:30.189Z,61.50
2019-01-14T16:42:58.582Z,61.40
2019-01-14T16:45:27.498Z,61.10
2019-01-14T16:47:55.694Z,62.00
2019-01-14T16:52:52.293Z,62.20
2019-01-14T16:55:45.813Z,61.20
2019-01-14T16:58:14.189Z,62.70
2019-01-14T17:00:42.662Z,62.70
2019-01-14T17:03:11.191Z,62.70
2019-01-14T17:05:39.763Z,62.80
2019-01-14T17:08:07.958Z,63.30
2019-01-14T17:10:36.472Z,62.70
2019-01-14T17:13:04.824Z,62.60
2019-01-14T17:15:32.226Z,62.60
2019-01-14T17:25:26.547Z,63.30
2019-01-14T17:27:54.319Z,62.80
2019-01-14T17:30:23.147Z,63.10
2019-01-14T17:32:51.618Z,62.70
2019-01-14T17:40:17.347Z,63.00
2019-01-14T17:45:14.081Z,63.90
2019-01-14T17:47:42.830Z,63.90
2019-01-14T17:52:40.883Z,63.00
2019-01-14T17:57:38.438Z,64.20
2019-01-14T18:02:37.335Z,63.70
2019-01-14T18:05:05.454Z,63.20
2019-01-14T18:07:33.899Z,64.10
2019-01-14T18:12:29.153Z,64.80
2019-01-14T18:14:57.233Z,64.90
2019-01-14T18:22:21.874Z,64.30
2019-01-14T18:24:55.086Z,63.40
2019-01-14T18:32:20.040Z,64.60
2019-01-14T18:34:48.809Z,64.80
2019-01-14T18:42:13.322Z,65.20
2019-01-14T18:47:10.513Z,64.00
2019-01-14T18:57:02.481Z,64.90
2019-01-14T19:01:58.311Z,63.80
2019-01-14T19:06:54.828Z,65.70
2019-01-14T19:09:22.491Z,66.00
2019-01-14T19:11:50.949Z,65.60
2019-01-14T19:16:47.458Z,65.00
2019-01-14T19:19:15.480Z,65.10
2019-01-14T19:21:43.602Z,64.20
2019-01-14T19:24:11.299Z,64.30
2019-01-14T19:26:41.249Z,63.60
2019-01-14T19:29:09.070Z,62.90
2019-01-14T19:34:04.725Z,63.80
2019-01-14T19:36:33.112Z,63.30
2019-01-14T19:46:26.674Z,64.00
2019-01-14T20:06:09.284Z,64.20
2019-01-14T20:08:38.100Z,63.50
2019-01-14T20:11:09.275Z,63.80
2019-01-14T20:16:06.416Z,63.10
2019-01-14T20:21:02.329Z,63.90
2019-01-14T20:23:30.696Z,63.40
2019-01-14T20:25:59.397Z,63.60
2019-01-14T20:30:55.715Z,63.10
2019-01-14T20:33:26.364Z,63.00
2019-01-14T20:35:55.798Z,63.40
2019-01-14T20:40:51.779Z,64.10
2019-01-14T20:45:48.027Z,64.30
2019-01-14T20:53:13.780Z,64.50
2019-01-14T21:00:41.765Z,64.70
2019-01-14T21:03:18.764Z,64.60
2019-01-14T21:05:49.534Z,65.00
2019-01-14T21:08:18.177Z,65.40
2019-01-14T21:10:46.332Z,65.80
2019-01-14T21:13:15.091Z,66.00
2019-01-14T21:15:43.154Z,66.20
2019-01-14T21:20:39.365Z,66.80
2019-01-14T21:23:07.211Z,67.30
2019-01-14T21:25:35.916Z,67.40
2019-01-14T21:28:03.637Z,68.50
2019-01-14T21:30:31.430Z,69.70
2019-01-14T21:32:59.778Z,69.00
2019-01-14T21:35:28.014Z,69.30
2019-01-14T21:37:57.883Z,69.30
2019-01-14T21:40:25.699Z,69.20
2019-01-14T21:42:53.101Z,68.70
2019-01-14T21:47:50.176Z,68.10
2019-01-14T21:50:18.112Z,68.10
2019-01-14T21:52:46.266Z,68.30
2019-01-14T21:55:16.176Z,68.00
2019-01-14T21:57:43.852Z,68.10
2019-01-14T22:00:14.304Z,68.40
2019-01-14T22:02:42.360Z,68.60
2019-01-14T22:05:10.116Z,68.30
2019-01-14T22:07:38.390Z,68.50
2019-01-14T22:10:09.116Z,68.40
2019-01-14T22:12:36.749Z,68.30
2019-01-14T22:15:05.519Z,68.50
2019-01-14T22:17:35.808Z,68.80
2019-01-14T22:20:08.025Z,68.60
2019-01-14T22:22:35.997Z,68.60
2019-01-14T22:25:05.568Z,68.40
2019-01-14T22:27:34.441Z,68.30
2019-01-14T22:30:02.540Z,68.10
2019-01-14T22:32:30.814Z,68.00
2019-01-14T22:34:59.382Z,67.80
2019-01-14T22:37:28.017Z,67.40
2019-01-14T22:39:56.269Z,67.50
2019-01-14T22:42:24.121Z,67.70
2019-01-14T22:44:53.930Z,68.00
2019-01-14T22:47:21.675Z,68.50
2019-01-14T22:57:14.905Z,68.40
2019-01-14T22:59:42.580Z,67.30
2019-01-14T23:02:11.475Z,67.00
2019-01-14T23:04:38.976Z,67.60
2019-01-14T23:07:08.217Z,68.00
2019-01-14T23:09:36.313Z,67.70
2019-01-14T23:14:32.493Z,67.90
2019-01-14T23:17:00.992Z,68.50
2019-01-14T23:19:29.084Z,68.00
2019-01-14T23:21:57.144Z,67.70
2019-01-14T23:24:25.598Z,68.10
2019-01-14T23:26:54.214Z,67.80
2019-01-14T23:29:22.516Z,67.70
2019-01-14T23:31:50.482Z,67.80
2019-01-14T23:34:18.948Z,68.30
2019-01-14T23:36:47.358Z,68.00
2019-01-14T23:41:43.594Z,68.20
2019-01-14T23:46:40.949Z,68.40
2019-01-14T23:49:09.431Z,67.70
2019-01-14T23:56:34.218Z,68.10
2019-01-14T23:59:02.376Z,68.40
